Bahamas Celebration — C6XJ3 — position and weather

sailwx.info

Track history (hours):
 
Tides and Currents Weather Stations Pressure Air Temp Water Temp Dewpoint Dewpoint Depression Visibility Wind Speed Wind Dir Waves Ship Positions

Bahamas Celebration

Last reported at 2014-Oct-31 01:25 UTC. Time now 2014-Nov-26 20:13 UTC.
Position N 26°41' W 079°46'.
Warning: this ship's position is 26 days out of date.

Length 202 m; draft 6.1 m.

Type: Passenger vessel. MMSI: 311011300.

Date/timePositionNaut miles runAvg speedWind from/ knotsBaromVisibWave heightAir tempDewpointWater temp
2014-Oct-31 01:25N 26°41' W 079°46'16 5.7
2014-Oct-30 22:33N 26°46' W 080°03'0 0.3
2014-Oct-30 21:22N 26°46' W 080°03'0 0.0
2014-Oct-30 19:22N 26°46' W 080°03'0 0.0
2014-Oct-30 18:19N 26°46' W 080°03'0 0.0
2014-Oct-30 17:28N 26°46' W 080°03'0 0.0
2014-Oct-30 16:04N 26°46' W 080°03'0 0.0
2014-Oct-30 14:04N 26°46' W 080°03'0 0.0
2014-Oct-30 13:22N 26°46' W 080°03'0 0.0
2014-Oct-30 12:31N 26°46' W 080°03'0 0.0
2014-Oct-30 11:19N 26°46' W 080°03'3 3.9
2014-Oct-30 10:33N 26°45' W 080°00'7 6.6
2014-Oct-30 09:33N 26°41' W 079°54'8 8.0
2014-Oct-30 08:33N 26°39' W 079°46'8 8.0
2014-Oct-30 07:30N 26°36' W 079°37'19 0.4
2014-Oct-28 10:18N 26°43' W 079°57'6 8.3
2014-Oct-28 09:33N 26°39' W 079°52'6 6.3
2014-Oct-28 08:33N 26°38' W 079°45'7 6.5
2014-Oct-28 07:33N 26°36' W 079°38'10 0.3
2014-Oct-27 01:23N 26°41' W 079°47'4 4.2
2014-Oct-27 00:31N 26°41' W 079°51'8 0.5
2014-Oct-26 10:32N 26°44' W 079°59'9 9.3
2014-Oct-26 09:33N 26°39' W 079°51'7 6.7
2014-Oct-26 08:33N 26°37' W 079°44'15 7.2
2014-Oct-26 06:29N 26°35' W 079°28'34 1.0
2014-Oct-24 22:19N 26°46' W 080°03'0 0.0
2014-Oct-24 21:13N 26°46' W 080°03'0 0.0
2014-Oct-24 20:31N 26°46' W 080°03'2 0.2
2014-Oct-24 10:33N 26°45' W 080°01'9 9.4
2014-Oct-24 09:33N 26°40' W 079°53'5 4.8
2014-Oct-24 08:34N 26°38' W 079°48'7 7.3
2014-Oct-24 07:33N 26°34' W 079°41'9 8.7
2014-Oct-24 06:33N 26°28' W 079°34'20 0.7
2014-Oct-23 00:28N 26°42' W 079°51'12 5.8
2014-Oct-22 22:22N 26°46' W 080°03'0 0.0
2014-Oct-22 20:25N 26°46' W 080°03'0 0.0
2014-Oct-22 19:28N 26°46' W 080°03'0 0.0
2014-Oct-22 18:22N 26°46' W 080°03'0 0.0
2014-Oct-22 17:22N 26°46' W 080°03'0 0.0
2014-Oct-22 16:25N 26°46' W 080°03'0 0.0
2014-Oct-22 15:31N 26°46' W 080°03'0 0.0
2014-Oct-22 14:28N 26°46' W 080°03'0 0.0
2014-Oct-22 13:31N 26°46' W 080°03'0 0.0
2014-Oct-22 12:31N 26°46' W 080°03'0 0.0
2014-Oct-22 11:19N 26°46' W 080°03'2 2.9
2014-Oct-22 10:33N 26°46' W 080°01'8 8.0
2014-Oct-22 09:33N 26°41' W 079°54'8 7.5
2014-Oct-22 08:33N 26°38' W 079°46'7 6.5
2014-Oct-22 07:32N 26°35' W 079°39'6 5.5
2014-Oct-22 06:32N 26°34' W 079°33'12 0.4
2014-Oct-21 02:11N 26°42' W 079°44'  
Track history (hours):
 
Tides and Currents Weather Stations Pressure Air Temp Water Temp Dewpoint Dewpoint Depression Visibility Wind Speed Wind Dir Waves Ship Positions

Bahamas Celebration

Last reported at 2014-Oct-31 01:25 UTC. Time now 2014-Nov-26 20:13 UTC.
Position N 26°41' W 079°46'.
Warning: this ship's position is 26 days out of date.

Length 202 m; draft 6.1 m.

Type: Passenger vessel. MMSI: 311011300.

Date/timePositionNaut miles runAvg speedWind from/ knotsBaromVisibWave heightAir tempDewpointWater temp
2014-Oct-31 01:25N 26°41' W 079°46'16 5.7
2014-Oct-30 22:33N 26°46' W 080°03'0 0.3
2014-Oct-30 21:22N 26°46' W 080°03'0 0.0
2014-Oct-30 19:22N 26°46' W 080°03'0 0.0
2014-Oct-30 18:19N 26°46' W 080°03'0 0.0
2014-Oct-30 17:28N 26°46' W 080°03'0 0.0
2014-Oct-30 16:04N 26°46' W 080°03'0 0.0
2014-Oct-30 14:04N 26°46' W 080°03'0 0.0
2014-Oct-30 13:22N 26°46' W 080°03'0 0.0
2014-Oct-30 12:31N 26°46' W 080°03'0 0.0
2014-Oct-30 11:19N 26°46' W 080°03'3 3.9
2014-Oct-30 10:33N 26°45' W 080°00'7 6.6
2014-Oct-30 09:33N 26°41' W 079°54'8 8.0
2014-Oct-30 08:33N 26°39' W 079°46'8 8.0
2014-Oct-30 07:30N 26°36' W 079°37'19 0.4
2014-Oct-28 10:18N 26°43' W 079°57'6 8.3
2014-Oct-28 09:33N 26°39' W 079°52'6 6.3
2014-Oct-28 08:33N 26°38' W 079°45'7 6.5
2014-Oct-28 07:33N 26°36' W 079°38'10 0.3
2014-Oct-27 01:23N 26°41' W 079°47'4 4.2
2014-Oct-27 00:31N 26°41' W 079°51'8 0.5
2014-Oct-26 10:32N 26°44' W 079°59'9 9.3
2014-Oct-26 09:33N 26°39' W 079°51'7 6.7
2014-Oct-26 08:33N 26°37' W 079°44'15 7.2
2014-Oct-26 06:29N 26°35' W 079°28'34 1.0
2014-Oct-24 22:19N 26°46' W 080°03'0 0.0
2014-Oct-24 21:13N 26°46' W 080°03'0 0.0
2014-Oct-24 20:31N 26°46' W 080°03'2 0.2
2014-Oct-24 10:33N 26°45' W 080°01'9 9.4
2014-Oct-24 09:33N 26°40' W 079°53'5 4.8
2014-Oct-24 08:34N 26°38' W 079°48'7 7.3
2014-Oct-24 07:33N 26°34' W 079°41'9 8.7
2014-Oct-24 06:33N 26°28' W 079°34'20 0.7
2014-Oct-23 00:28N 26°42' W 079°51'12 5.8
2014-Oct-22 22:22N 26°46' W 080°03'0 0.0
2014-Oct-22 20:25N 26°46' W 080°03'0 0.0
2014-Oct-22 19:28N 26°46' W 080°03'0 0.0
2014-Oct-22 18:22N 26°46' W 080°03'0 0.0
2014-Oct-22 17:22N 26°46' W 080°03'0 0.0
2014-Oct-22 16:25N 26°46' W 080°03'0 0.0
2014-Oct-22 15:31N 26°46' W 080°03'0 0.0
2014-Oct-22 14:28N 26°46' W 080°03'0 0.0
2014-Oct-22 13:31N 26°46' W 080°03'0 0.0
2014-Oct-22 12:31N 26°46' W 080°03'0 0.0
2014-Oct-22 11:19N 26°46' W 080°03'2 2.9
2014-Oct-22 10:33N 26°46' W 080°01'8 8.0
2014-Oct-22 09:33N 26°41' W 079°54'8 7.5
2014-Oct-22 08:33N 26°38' W 079°46'7 6.5
2014-Oct-22 07:32N 26°35' W 079°39'6 5.5
2014-Oct-22 06:32N 26°34' W 079°33'12 0.4
2014-Oct-21 02:11N 26°42' W 079°44'  

Dump ship's entire track history